Guatay (79, 629) Station Data

Red Flag Warning: No
Fire Weather Zone: 258
SDGE Region: Mountain Empire
Lat/Lon: 32.855/-116.574

Observations

Time Wind Speed/Gust Temp(F) RH Fuel Moist Fuel Temp(F) Dewpt(F) Tmax(F) Tmin(F) Accum Precip 10-min Precip SL Press(mb)
4/26 2:40am 83 2 G 5 49° 59% - - 35° 53.3° 47° - - -
4/26 2:30am 75 2 G 6 52° 51% - - 35° 53.3° 47° - - -
4/26 2:20am 76 8 G 10 52° 51% - - 35° 53.3° 47° - - -
4/26 2:10am 84 9 G 10 50° 59% - - 36° 52.9° 47° - - -
4/26 2:00am 80 7 G 11 51° 55% - - 36° 52.9° 47° - - -
4/26 1:50am 84 7 G 8 51° 57% - - 36° 52.9° 47° - - -
4/26 1:40am 75 6 G 7 50° 61% - - 37° 52.9° 47° - - -
4/26 1:30am 81 8 G 10 49° 65% - - 38° 52.9° 47° - - -
4/26 1:20am 81 7 G 10 50° 65% - - 38° 52.9° 47° - - -
4/26 1:10am 84 7 G 9 48° 69% - - 39° 52.9° 47° - - -
4/26 1:00am 88 5 G 8 48° 70% - - 38° 52.9° 47° - - -
4/26 12:50am 84 3 G 6 50° 64% - - 38° 52.9° 48.3° - - -
4/26 12:40am 108 2 G 4 50° 63% - - 38° 52.9° 49.2° - - -
4/26 12:30am 147 1 G 2 50° 63% - - 38° 52.9° 49.2° - - -
4/26 12:20am 266 1 G 3 51° 59% - - 38° 52.9° 49.6° - - -
4/26 12:10am 138 2 G 4 51° 60% - - 38° 52.9° 49.6° - - -
4/26 12:00am 274 1 G 3 52° 59% - - 38° 56.3° 44.6° - - -
4/25 11:50pm 225 1 G 2 51° 62% - - 38° 56.3° 44.6° - - -
4/25 11:40pm 57 2 G 4 49° 68% - - 39° 56.3° 44.6° - - -
4/25 11:30pm 290 1 G 2 50° 67% - - 40° 56.3° 44.6° - - -
4/25 11:20pm 83 1 G 3 50° 68% - - 40° 56.3° 44.6° - - -
4/25 11:10pm 267 1 G 3 51° 68% - - 41° 56.3° 44.6° - - -
4/25 11:00pm 280 2 G 5 50° 69% - - 41° 56.3° 44.6° - - -
4/25 10:50pm 254 2 G 5 51° 69% - - 41° 56.3° 44.6° - - -
4/25 10:40pm 236 2 G 4 51° 72% - - 42° 56.3° 44.6° - - -
4/25 10:30pm 255 2 G 4 50° 75% - - 42° 56.3° 44.6° - - -
4/25 10:20pm 252 3 G 5 50° 76% - - 43° 56.3° 44.6° - - -
4/25 10:10pm 267 4 G 7 50° 77% - - 43° 56.3° 44.6° - - -
4/25 10:00pm 261 3 G 7 50° 79% - - 43° 56.3° 44.6° - - -
4/25 9:50pm 253 3 G 5 49° 81% - - 44° 56.3° 44.6° - - -
4/25 9:40pm 256 1 G 3 49° 84% - - 44° 56.3° 44.6° - - -
4/25 9:30pm 271 1 G 3 48° 87% - - 45° 56.3° 44.6° - - -
4/25 9:20pm 191 1 G 3 48° 89% - - 45° 56.3° 44.6° - - -
4/25 9:10pm 303 1 G 3 48° 90% - - 45° 56.3° 44.6° - - -
4/25 9:00pm 293 4 G 6 48° 91% - - 45° 56.3° 44.6° - - -
4/25 8:50pm 270 3 G 7 47° 90% - - 45° 56.3° 44.6° - - -
4/25 8:40pm 265 2 G 5 48° 89% - - 45° 56.3° 44.6° - - -
4/25 8:30pm 268 3 G 5 48° 89% - - 45° 56.3° 44.6° - - -
4/25 8:20pm 280 3 G 5 49° 88% - - 45° 56.3° 44.6° - - -
4/25 8:10pm 276 3 G 6 49° 87% - - 45° 56.3° 44.6° - - -
4/25 8:00pm 275 5 G 8 49° 87% - - 45° 56.3° 44.6° - - -
4/25 7:50pm 279 7 G 12 49° 87% - - 46° 56.3° 44.6° - - -
4/25 7:40pm 275 7 G 10 49° 87% - - 46° 56.3° 44.6° - - -
4/25 7:30pm 273 6 G 9 50° 87% - - 46° 56.3° 44.6° - - -
4/25 7:20pm 280 8 G 12 50° 88% - - 46° 56.3° 44.6° - - -
4/25 7:10pm 286 9 G 13 50° 88% - - 46° 56.3° 44.6° - - -
4/25 7:00pm 279 8 G 11 50° 88% - - 47° 56.3° 44.6° - - -
4/25 6:50pm 290 10 G 14 50° 87% - - 47° 56.3° 44.6° - - -
4/25 6:40pm 283 9 G 14 51° 86% - - 46° 56.3° 44.6° - - -
4/25 6:30pm 288 8 G 12 51° 85% - - 46° 56.3° 44.6° - - -
4/25 6:20pm 282 8 G 13 51° 84% - - 46° 56.3° 44.6° - - -
4/25 6:10pm 286 10 G 13 51° 83% - - 46° 56.3° 44.6° - - -
4/25 6:00pm 287 10 G 15 51° 82% - - 46° 56.3° 44.6° - - -
4/25 5:50pm 290 12 G 15 52° 80% - - 46° 56.3° 44.6° - - -
4/25 5:40pm 287 11 G 16 52° 78% - - 46° 56.3° 44.6° - - -
4/25 5:30pm 283 11 G 16 52° 77% - - 46° 56.3° 44.6° - - -
4/25 5:20pm 275 10 G 17 52° 76% - - 45° 56.3° 44.6° - - -
4/25 5:10pm 272 10 G 16 53° 75% - - 45° 56.3° 44.6° - - -
4/25 5:00pm 276 10 G 16 53° 74% - - 45° 56.3° 44.6° - - -
4/25 4:50pm 281 10 G 16 53° 75% - - 45° 56.3° 44.6° - - -
4/25 4:40pm 269 9 G 13 53° 75% - - 45° 56.3° 44.6° - - -
4/25 4:30pm 269 8 G 13 53° 76% - - 45° 56.3° 44.6° - - -
4/25 4:20pm 281 10 G 14 53° 76% - - 45° 56.3° 44.6° - - -
4/25 4:10pm 274 10 G 17 53° 77% - - 46° 56.3° 44.6° - - -
4/25 4:00pm 272 10 G 19 53° 79% - - 46° 56.3° 44.6° - - -
4/25 3:50pm 272 11 G 16 53° 78% - - 46° 56.3° 44.6° - - -
4/25 3:40pm 258 10 G 14 53° 77% - - 46° 56.3° 44.6° - - -
4/25 3:30pm 252 10 G 16 53° 76% - - 46° 56.3° 44.6° - - -
4/25 3:20pm 247 12 G 17 53° 76% - - 45° 56.3° 44.6° - - -
4/25 3:10pm 266 10 G 18 54° 71% - - 45° 56.3° 44.6° - - -
4/25 3:00pm 284 8 G 13 54° 66% - - 43° 56.3° 44.6° - - -
4/25 2:50pm 277 10 G 16 54° 67% - - 44° 56.3° 44.6° - - -
4/25 2:40pm 269 10 G 18 55° 66% - - 44° 56.3° 44.6° - - -
4/25 2:30pm 277 10 G 15 55° 67% - - 44° 56.3° 44.6° - - -
4/25 2:20pm 277 9 G 16 55° 66% - - 44° 56.3° 44.6° - - -
4/25 2:10pm 287 12 G 19 54° 66% - - 43° 56.3° 44.6° - - -
4/25 2:00pm 291 11 G 17 55° 65% - - 43° 56.3° 44.6° - - -
4/25 1:50pm 272 12 G 19 55° 64% - - 43° 56.3° 44.6° - - -
4/25 1:40pm 266 10 G 18 56° 63% - - 43° 56.3° 44.6° - - -
4/25 1:30pm 275 13 G 20 54° 66% - - 43° 55.4° 44.6° - - -
4/25 1:20pm 274 11 G 17 54° 65% - - 43° 55.4° 44.6° - - -
4/25 1:10pm 274 12 G 18 54° 66% - - 43° 55.4° 44.6° - - -
4/25 1:00pm 278 11 G 19 54° 64% - - 42° 55.4° 44.6° - - -
4/25 12:50pm 274 12 G 20 54° 64% - - 42° 55.4° 44.6° - - -
4/25 12:40pm 275 12 G 19 54° 64% - - 42° 55.4° 44.6° - - -
4/25 12:30pm 272 10 G 18 54° 65% - - 42° 55.1° 44.6° - - -
4/25 12:20pm 278 9 G 16 53° 67% - - 43° 53.7° 44.6° - - -
4/25 12:10pm 267 10 G 15 53° 67% - - 42° 53.6° 44.6° - - -
4/25 12:00pm 271 8 G 16 53° 68% - - 42° 53.6° 44.6° - - -
4/25 11:50am 277 10 G 15 52° 70% - - 42° 52.4° 44.6° - - -
4/25 11:40am 267 10 G 16 52° 70% - - 42° 52.2° 44.6° - - -
4/25 11:30am 265 11 G 16 51° 69% - - 42° 52.1° 44.6° - - -
4/25 11:20am 279 13 G 20 51° 69% - - 41° 51.8° 44.6° - - -
4/25 11:10am 279 13 G 21 51° 69% - - 41° 51.8° 44.6° - - -
4/25 11:00am 272 14 G 23 51° 69% - - 41° 51.7° 44.6° - - -
4/25 10:50am 270 14 G 22 51° 67% - - 41° 51.7° 44.6° - - -
4/25 10:40am 275 15 G 23 51° 67% - - 40° 51.6° 44.6° - - -
4/25 10:30am 281 17 G 27 51° 68% - - 41° 51.3° 44.6° - - -
4/25 10:20am 286 19 G 27 51° 70% - - 41° 51.1° 44.6° - - -
4/25 10:10am 273 18 G 25 50° 70% - - 41° 51° 44.6° - - -
4/25 10:00am 270 16 G 23 50° 69% - - 41° 51° 44.6° - - -
4/25 9:50am 273 17 G 25 50° 72% - - 41° 50.2° 44.6° - - -
4/25 9:40am 274 16 G 25 50° 71% - - 41° 50.1° 44.6° - - -
4/25 9:30am 271 14 G 20 49° 74% - - 42° 49.9° 44.6° - - -
4/25 9:20am 268 14 G 20 49° 77% - - 42° 49.9° 44.6° - - -
4/25 9:10am 279 13 G 17 49° 76% - - 42° 49.9° 44.6° - - -
4/25 9:00am 274 10 G 16 49° 78% - - 42° 49.4° 44.6° - - -
4/25 8:50am 280 7 G 13 49° 79% - - 43° 49.4° 44.6° - - -
4/25 8:40am 278 8 G 11 48° 81% - - 43° 48.6° 44.6° - - -
4/25 8:30am 258 8 G 12 48° 84% - - 43° 48.6° 44.6° - - -
4/25 8:20am 268 5 G 9 48° 81% - - 43° 48.6° 44.6° - - -
4/25 8:10am 258 6 G 9 47° 86% - - 43° 48.1° 44.6° - - -
4/25 8:00am 266 4 G 8 47° 87% - - 43° 47.3° 44.6° - - -
4/25 7:50am 275 3 G 6 47° 87% - - 43° 47.1° 44.6° - - -
4/25 7:40am 279 1 G 4 47° 90% - - 44° 47.1° 44.6° - - -
4/25 7:30am 277 3 G 6 46° 90% - - 44° 46.7° 44.6° - - -
4/25 7:20am 264 4 G 6 46° 91% - - 44° 46.4° 44.6° - - -
4/25 7:10am 242 6 G 11 46° 91% - - 43° 46.4° 44.6° - - -
4/25 7:00am 248 8 G 15 46° 89% - - 43° 46.4° 44.6° - - -
4/25 6:50am 255 9 G 16 46° 88% - - 43° 46.4° 44.6° - - -
4/25 6:40am 229 7 G 12 46° 89% - - 43° 46.4° 44.6° - - -
4/25 6:30am 237 6 G 10 46° 91% - - 43° 46.1° 44.6° - - -
4/25 6:20am 243 9 G 15 46° 91% - - 43° 46.1° 44.6° - - -
4/25 6:10am 250 7 G 13 46° 92% - - 43° 46° 44.6° - - -
4/25 6:00am 246 6 G 12 46° 90% - - 43° 46° 44.6° - - -
4/25 5:50am 226 8 G 15 46° 90% - - 43° 46° 44.6° - - -
4/25 5:40am 232 7 G 11 46° 91% - - 43° 45.9° 44.6° - - -
4/25 5:30am 233 7 G 12 46° 92% - - 43° 45.8° 44.6° - - -
4/25 5:20am 239 7 G 13 45° 94% - - 44° 45.8° 44.6° - - -
4/25 5:10am 232 8 G 13 45° 95% - - 44° 45.8° 44.6° - - -
4/25 5:00am 221 8 G 13 45° 95% - - 44° 45.8° 44.6° - - -
4/25 4:50am 236 9 G 14 45° 94% - - 44° 45.8° 44.6° - - -
4/25 4:40am 231 10 G 17 46° 95% - - 44° 45.8° 44.6° - - -
4/25 4:30am 217 9 G 15 45° 95% - - 44° 45.8° 44.6° - - -
4/25 4:20am 223 6 G 11 45° 96% - - 44° 45.8° 44.6° - - -
4/25 4:10am 220 8 G 12 46° 96% - - 44° 45.8° 44.6° - - -
4/25 4:00am 222 8 G 13 46° 96% - - 45° 45.8° 44.6° - - -
4/25 3:50am 218 7 G 12 45° 96% - - 44° 45.6° 44.6° - - -
4/25 3:40am 219 7 G 11 45° 96% - - 44° 45.6° 44.6° - - -
4/25 3:30am 218 8 G 12 45° 96% - - 44° 45.5° 44.6° - - -
4/25 3:20am 219 5 G 11 45° 96% - - 44° 45.5° 44.6° - - -
4/25 3:10am 231 7 G 13 45° 96% - - 44° 45.5° 44.6° - - -
4/25 3:00am 216 9 G 15 45° 96% - - 44° 45.5° 44.6° - - -
4/25 2:50am 218 9 G 14 45° 96% - - 44° 45.5° 44.6° - - -
4/25 2:40am 220 9 G 15 45° 96% - - 44° 45.5° 44.6° - - -
4/25 2:30am 253 8 G 16 45° 96% - - 44° 45.5° 44.6° - - -
4/25 2:20am 232 9 G 14 45° 96% - - 44° 45.5° 44.6° - - -
4/25 2:10am 254 6 G 15 45° 96% - - 44° 45.5° 44.6° - - -
4/25 2:00am 209 8 G 15 45° 96% - - 44° 45.5° 44.6° - - -
4/25 1:50am 190 8 G 14 45° 96% - - 44° 45.5° 44.6° - - -
4/25 1:40am 197 7 G 14 45° 96% - - 44° 45.5° 44.6° - - -
4/25 1:30am 238 4 G 9 45° 96% - - 44° 45.5° 44.6° - - -
4/25 1:20am 286 3 G 6 45° 96% - - 44° 45.4° 44.6° - - -
4/25 1:10am 206 3 G 6 45° 96% - - 44° 45.3° 44.6° - - -
4/25 1:00am 189 4 G 8 45° 96% - - 44° 45.3° 44.6° - - -
4/25 12:50am 171 5 G 11 45° 96% - - 44° 45.3° 44.6° - - -
4/25 12:40am 193 5 G 11 45° 96% - - 44° 45.3° 44.6° - - -
4/25 12:30am 257 4 G 11 45° 96% - - 44° 45.3° 44.6° - - -
4/25 12:20am 212 3 G 6 45° 96% - - 44° 45.1° 44.6° - - -
4/25 12:10am 238 7 G 15 45° 96% - - 44° 45.1° 44.6° - - -
4/25 12:00am 248 8 G 12 45° 95% - - 44° 62.1° 44.3° - - -
4/24 11:50pm 258 9 G 15 45° 95% - - 44° 62.1° 44.3° - - -
4/24 11:40pm 254 9 G 15 45° 95% - - 44° 62.1° 44.3° - - -
4/24 11:30pm 262 9 G 15 45° 94% - - 44° 62.1° 44.3° - - -
4/24 11:20pm 266 7 G 13 45° 93% - - 43° 62.1° 44.3° - - -
4/24 11:10pm 274 8 G 13 45° 90% - - 42° 62.1° 44.3° - - -
4/24 11:00pm 286 6 G 10 46° 79% - - 40° 62.1° 44.9° - - -
4/24 10:50pm 296 2 G 7 46° 77% - - 40° 62.1° 44.9° - - -
4/24 10:40pm 4 1 G 4 46° 81% - - 41° 62.1° 44.9° - - -
4/24 10:30pm 87 3 G 6 46° 83% - - 41° 62.1° 44.9° - - -
4/24 10:20pm 93 4 G 6 46° 87% - - 42° 62.1° 44.9° - - -
4/24 10:10pm 94 4 G 7 46° 92% - - 43° 62.1° 44.9° - - -
4/24 10:00pm 92 5 G 7 45° 93% - - 43° 62.1° 44.9° - - -
4/24 9:50pm 99 2 G 5 45° 92% - - 43° 62.1° 45.2° - - -
4/24 9:40pm 90 0 G 1 46° 92% - - 44° 62.1° 45.5° - - -
4/24 9:30pm 269 2 G 4 46° 92% - - 44° 62.1° 45.9° - - -
4/24 9:20pm 73 1 G 3 46° 92% - - 44° 62.1° 46.1° - - -
4/24 9:10pm 72 0 G 1 47° 93% - - 45° 62.1° 46.1° - - -
4/24 9:00pm 64 0 G 1 47° 93% - - 45° 62.1° 46.1° - - -
4/24 8:50pm 288 1 G 3 47° 93% - - 45° 62.1° 46.1° - - -
4/24 8:40pm 296 2 G 4 48° 93% - - 46° 62.1° 46.1° - - -
4/24 8:30pm 275 3 G 5 48° 93% - - 46° 62.1° 46.1° - - -
4/24 8:20pm 258 3 G 4 48° 93% - - 46° 62.1° 46.1° - - -
4/24 8:10pm 277 4 G 5 48° 92% - - 46° 62.1° 46.1° - - -
4/24 8:00pm 274 5 G 8 48° 92% - - 46° 62.1° 46.1° - - -
4/24 7:50pm 269 6 G 8 49° 92% - - 46° 62.1° 46.1° - - -
4/24 7:40pm 266 6 G 8 49° 91% - - 47° 62.1° 46.1° - - -
4/24 7:30pm 261 7 G 10 50° 90% - - 47° 62.1° 46.1° - - -
4/24 7:20pm 265 6 G 9 50° 86% - - 46° 62.1° 46.1° - - -
4/24 7:10pm 259 7 G 11 51° 83% - - 46° 62.1° 46.1° - - -
4/24 7:00pm 269 7 G 10 52° 78% - - 45° 62.1° 46.1° - - -
4/24 6:50pm 262 7 G 11 53° 74% - - 44° 62.1° 46.1° - - -
4/24 6:40pm 256 9 G 13 53° 72% - - 44° 62.1° 46.1° - - -
4/24 6:30pm 255 9 G 15 53° 71% - - 44° 62.1° 46.1° - - -
4/24 6:20pm 251 10 G 15 54° 71% - - 45° 62.1° 46.1° - - -
4/24 6:10pm 257 11 G 17 54° 70% - - 45° 62.1° 46.1° - - -
4/24 6:00pm 250 13 G 18 54° 69% - - 44° 62.1° 46.1° - - -